Tiempo atmosférico en la estación meteorológica de San Pedro Manrique, Soria (1096 m.)



Fecha
DESCASC
Temp. máxima en grados centígrados (hora)
DESCASC
Temp. mínima en grados centígrados (hora)
DESCASC
Temp. media en grados centígrados
DESCASC
Racha de viento máxima en m/sg (hora)
DESCASC
Velocidad máxima media en intervalos de 10 minutos(hora)
DESCASC
Precipitaciones diarias en mm
DESCASC
Precipitaciones de 00:00 a 06:00 en mm
DESCASC
Precipitaciones de 06:00 a 12:00 en mm
DESCASC
Precipitaciones de 12:00 a 18:00 en mm
DESCASC
Precipitaciones de 18:00 a 24:00 en mm
DESCASC
28-02-2021 5.8 (12:30) -1.9 (03:10) 2 8.06 (22:50) 5 (21:50) 1.4 0 0 0.6 0.8
27-02-2021 15 (14:50) -3.4 (07:50) 5.8 8.33 (16:50) 4.72 (15:20) 0 0 0 0 0
26-02-2021 13.5 (14:50) 0.6 (04:20) 7.1 6.11 (15:50) 4.17 (16:10) 0 0 0 0 0
25-02-2021 12.3 (12:40) 2.5 (00:00) 7.4 6.39 (10:50) 3.89 (14:40) 0 0 0 0 0
24-02-2021 14.7 (14:50) 2.2 (00:00) 8.4 11.39 (16:00) 6.11 (15:00) 0 0 0 0 0
23-02-2021 12.4 (14:50) 1.1 (00:00) 6.7 8.33 (16:00) 5.56 (13:30) 0 0 0 0 0
22-02-2021 6.8 (00:00) 1.5 (00:00) 4.2 10 (05:00) 6.11 (05:10) 7 5 1.8 0.2 0
21-02-2021 10.1 (14:40) 3 (00:00) 6.6 12.78 (18:20) 6.94 (00:40) 0.2 0 0 0 0.2
20-02-2021 16.7 (14:40) 5.2 (00:00) 11 17.78 (13:30) 10 (14:10) 0 0 0 0 0
19-02-2021 15.3 (14:40) 2.2 (00:00) 8.8 12.78 (14:20) 6.39 (15:10) 0 0 0 0 0
18-02-2021 15.5 (14:50) 2.6 (00:00) 9 16.67 (14:00) 10.56 (14:00) 0 0 0 0 0
17-02-2021 13.9 (16:40) 4.9 (00:00) 9.4 9.17 (12:40) 4.72 (12:50) 0 0 0 0 0
16-02-2021 15 (16:00) 2.7 (00:00) 8.9 15 (01:00) 8.33 (01:00) 0 0 0 0 0
15-02-2021 12.7 (16:20) 2.7 (00:00) 7.7 11.67 (23:59) 6.39 (11:50) 0 0 0 0 0
14-02-2021 14.2 (14:40) -2.1 (-00:0) 6 8.61 (14:10) 5 (14:10) 0 0 0 0 0
13-02-2021 9.8 (15:50) -0.7 (-00:0) 4.6 7.78 (00:30) 6.11 (00:30) 0 0 0 0 0
12-02-2021 9.2 (12:00) 4.4 (00:00) 6.8 16.11 (12:50) 10.28 (12:50) 2.8 0 0 2.8 0
11-02-2021 14.5 (14:40) -0.5 (-00:0) 7 10.56 (16:40) 6.94 (13:50) 0 0 0 0 0
10-02-2021 9.3 (16:20) -0.2 (00:00) 4.6 10.83 (03:00) 6.11 (12:50) 0.8 0.8 0 0 0
09-02-2021 6.5 (12:00) 0.9 (00:00) 3.7 19.44 (12:50) 10.28 (12:30) 8.2 0.2 1 6.2 0.8
08-02-2021 8.6 (15:40) 2.1 (00:00) 5.4 12.22 (01:50) 7.5 (13:30) 0 0 0 0 0
07-02-2021 6.9 (15:10) -1.8 (-00:0) 2.6 11.39 (22:50) 5.28 (01:50) 0 0 0 0 0
06-02-2021 7.2 (01:40) 2.1 (00:00) 4.6 11.67 (01:40) 6.94 (01:50) 1.2 0.2 0.2 0.6 0.2
05-02-2021 11.6 (14:20) 2.7 (00:00) 7.2 8.61 (00:20) 4.44 (15:30) 0.2 0.2 0 0 0
04-02-2021 12.6 (14:20) 6.5 (00:00) 9.6 9.72 (23:10) 5.28 (22:40) 0.2 0.2 0 0 0
03-02-2021 11.4 (15:10) 5.2 (00:00) 8.3 15.28 (03:30) 8.33 (03:40) 0.6 0 0 0.2 0.4
02-02-2021 12.4 (15:50) 6.4 (00:00) 9.4 15 (14:10) 8.61 (13:00) 0 0 0 0 0
01-02-2021 12.2 (16:20) 6 (00:00) 9.1 19.72 (01:40) 12.22 (02:30) 0 0 0 0 0
31-01-2021 14.1 (14:30) 3.9 (00:00) 9 18.89 (23:40) 9.44 (23:40) 0 0 0 0 0
30-01-2021 10.4 (00:20) 3.9 (00:00) 7.1 19.72 (00:30) 12.5 (00:30) 2.8 0.4 2.4 0 0

Gráficas

Temp. máximas Temp. mínimas Temp. medias Precipitaciones Rachas de viento máximas Velocidades máximas media en intervalos de 10 minutos

Datos horarios

Fecha y hora oficial Temperatura (ºC) Velocidad del viento (km/h) Dirección del viento Racha (km/h) Dirección de racha Precipitación (mm) Presión (hPa) Tendencia (hPa) Humedad (%)
2021-02-28 23:00:00 4.7 16 Sudeste 29 Sudeste 0 -- -- 83
2021-02-28 22:00:00 4.9 15 Sudeste 27 Sudeste 0.2 -- -- 84
2021-02-28 21:00:00 5.4 11 Sudeste 23 Sudeste 0 -- -- 84
2021-02-28 20:00:00 5.1 4 Este 13 Este 0 -- -- 88
2021-02-28 19:00:00 4.9 4 Sudeste 12 Sudeste 0.6 -- -- 87
2021-02-28 18:00:00 5.1 5 Sudeste 15 Sudeste 0.4 -- -- 84
2021-02-28 17:00:00 4.9 5 Nordeste 14 Nordeste 0.2 -- -- 82
2021-02-28 16:00:00 4.4 9 Nordeste 17 Este 0 -- -- 83
2021-02-28 15:00:00 5.1 8 Nordeste 18 Norte 0 -- -- 76
2021-02-28 14:00:00 5.1 5 Sudeste 12 Este 0 -- -- 75
2021-02-28 13:00:00 5.6 7 Sudeste 17 Sudeste 0 -- -- 73
2021-02-28 12:00:00 5.2 10 Sudeste 19 Sudeste 0 -- -- 74
2021-02-28 11:00:00 3.1 2 Noroeste 5 Noroeste 0 -- -- 76
2021-02-28 10:00:00 1.1 0 Calma 5 Sur 0 -- -- 80
2021-02-28 09:00:00 -0.3 2 Sudoeste 4 Sudoeste 0 -- -- 84
2021-02-28 08:00:00 -1.2 0 Calma 3 Sudoeste 0 -- -- 84
2021-02-28 07:00:00 -0.2 0 Calma 4 Sudoeste 0 -- -- 82
2021-02-28 06:00:00 0 0 Calma 5 Sudoeste 0 -- -- 81
2021-02-28 05:00:00 -0.5 0 Calma 9 Sur 0 -- -- 80
2021-02-28 04:00:00 -1.6 2 Sudeste 9 Sur 0 -- -- 81
2021-02-28 03:00:00 -1.5 2 Nordeste 9 Nordeste 0 -- -- 79
2021-02-28 02:00:00 -0.9 2 Oeste 5 Sudeste 0 -- -- 78
2021-02-28 01:00:00 0 0 Calma 5 Norte 0 -- -- 75
2021-02-28 00:00:00 1.4 2 Sur 8 Sudoeste 0 -- -- 70
2021-02-27 23:00:00 2.6 4 Sur 10 Sudeste 0 -- -- 64
2021-02-27 22:00:00 3.8 6 Sudeste 12 Sudeste 0 -- -- 61
2021-02-27 21:00:00 3.8 3 Sur 8 Sudeste 0 -- -- 63
2021-02-27 20:00:00 6.7 5 Noroeste 15 Norte 0 -- -- 51
2021-02-27 19:00:00 7.7 7 Noroeste 23 Noroeste 0 -- -- 46
2021-02-27 18:00:00 9.9 8 Norte 26 Norte 0 -- -- 45
2021-02-27 17:00:00 10.9 14 Norte 30 Noroeste 0 -- -- 43
2021-02-27 16:00:00 12.2 15 Norte 28 Nordeste 0 -- -- 42
2021-02-27 15:00:00 14.4 12 Nordeste 24 Nordeste 0 -- -- 36
2021-02-27 14:00:00 13 10 Norte 29 Nordeste 0 -- -- 30
2021-02-27 13:00:00 12.1 10 Nordeste 25 Nordeste 0 -- -- 40
2021-02-27 12:00:00 10.8 12 Nordeste 21 Nordeste 0 -- -- 51
2021-02-27 11:00:00 9.3 9 Norte 23 Norte 0 -- -- 57
2021-02-27 10:00:00 2.6 0 Calma 4 Sudeste 0 -- -- 83
2021-02-27 09:00:00 -1.7 0 Calma 2 Norte 0 -- -- 87
2021-02-27 08:00:00 -3.4 0 Calma 0 Calma 0 -- -- 87
2021-02-27 07:00:00 -2.9 0 Calma 2 Este 0 -- -- 88
2021-02-27 06:00:00 -2.6 0 Calma 3 Sudoeste 0 -- -- 88
2021-02-27 05:00:00 -2.5 0 Calma 3 Sudeste 0 -- -- 88
2021-02-27 04:00:00 -1.9 0 Calma 2 Sudeste 0 -- -- 88
2021-02-27 03:00:00 -1.2 0 Calma 3 Sudoeste 0 -- -- 88
2021-02-27 02:00:00 -0.5 0 Calma 3 Este 0 -- -- 88
2021-02-27 01:00:00 0.5 0 Calma 3 Sudoeste 0 -- -- 88
2021-02-27 00:00:00 1.5 0 Calma 3 Sudeste 0 -- -- 88
2021-02-26 23:00:00 2.4 0 Calma 3 Sur 0 -- -- 87
2021-02-26 22:00:00 3.5 0 Calma 8 Oeste 0 -- -- 85
2021-02-26 21:00:00 5.2 2 Sudoeste 6 Sudoeste 0 -- -- 83
2021-02-26 20:00:00 6.9 3 Oeste 5 Oeste 0 -- -- 79
2021-02-26 19:00:00 8.4 2 Este 8 Nordeste 0 -- -- 76
2021-02-26 18:00:00 9.8 6 Nordeste 16 Nordeste 0 -- -- 71
2021-02-26 17:00:00 10.3 12 Nordeste 22 Nordeste 0 -- -- 69
2021-02-26 16:00:00 11.5 15 Nordeste 22 Norte 0 -- -- 65
2021-02-26 15:00:00 13.2 12 Nordeste 21 Este 0 -- -- 59
2021-02-26 14:00:00 12.4 9 Nordeste 18 Nordeste 0 -- -- 60
2021-02-26 13:00:00 11.2 3 Este 8 Sudoeste 0 -- -- 63
2021-02-26 12:00:00 9.2 2 Sur 8 Sudoeste 0 -- -- 68
2021-02-26 11:00:00 7 3 Noroeste 12 Noroeste 0 -- -- 76
2021-02-26 10:00:00 5.2 6 Noroeste 10 Noroeste 0 -- -- 84
2021-02-26 09:00:00 4.2 3 Oeste 8 Oeste 0 -- -- 87
2021-02-26 08:00:00 2.7 0 Calma 4 Sudeste 0 -- -- 89
2021-02-26 07:00:00 2.3 0 Calma 5 Sur 0 -- -- 88
2021-02-26 06:00:00 1.8 3 Sur 6 Sur 0 -- -- 88
2021-02-26 05:00:00 1.1 0 Calma 3 Sudoeste 0 -- -- 89
2021-02-26 04:00:00 0.7 0 Calma 2 Sur 0 -- -- 88
2021-02-26 03:00:00 1.2 0 Calma 4 Sur 0 -- -- 87
2021-02-26 02:00:00 1.8 0 Calma 3 Noroeste 0 -- -- 88
2021-02-26 01:00:00 2 0 Calma 4 Este 0 -- -- 87
2021-02-26 00:00:00 2.9 0 Calma 4 Sur 0 -- -- 85
2021-02-25 23:00:00 3.9 0 Calma 2 Este 0 -- -- 85
2021-02-25 22:00:00 5 0 Calma 4 Este 0 -- -- 84
2021-02-25 21:00:00 5.6 2 Sudoeste 5 Sudeste 0 -- -- 84
2021-02-25 20:00:00 6.6 0 Calma 4 Norte 0 -- -- 82
2021-02-25 19:00:00 7.3 0 Calma 14 Nordeste 0 -- -- 80
2021-02-25 18:00:00 8.3 6 Nordeste 12 Nordeste 0 -- -- 76
2021-02-25 17:00:00 8.8 10 Nordeste 17 Nordeste 0 -- -- 73
2021-02-25 16:00:00 10.1 10 Nordeste 20 Nordeste 0 -- -- 68
2021-02-25 15:00:00 10.1 13 Nordeste 22 Nordeste 0 -- -- 68
2021-02-25 14:00:00 9.7 12 Nordeste 19 Nordeste 0 -- -- 69
2021-02-25 13:00:00 10.7 7 Nordeste 17 Nordeste 0 -- -- 61
2021-02-25 12:00:00 11.6 5 Sudeste 14 Sudeste 0 -- -- 53
2021-02-25 11:00:00 10.1 13 Sudeste 23 Sudeste 0 -- -- 57
2021-02-25 10:00:00 7.1 5 Oeste 10 Oeste 0 -- -- 72
2021-02-25 09:00:00 4.6 4 Sudoeste 10 Sudoeste 0 -- -- 80
2021-02-25 08:00:00 2.9 2 Sur 10 Sur 0 -- -- 83
2021-02-25 07:00:00 3.3 8 Sur 12 Sur 0 -- -- 84
2021-02-25 06:00:00 2.7 4 Sudeste 10 Sur 0 -- -- 85
2021-02-25 05:00:00 3.9 8 Sur 12 Sur 0 -- -- 80
2021-02-25 04:00:00 4.7 5 Sudoeste 12 Sudoeste 0 -- -- 81
2021-02-25 03:00:00 4.5 5 Sudoeste 11 Sudoeste 0 -- -- 82
2021-02-25 02:00:00 5.6 7 Sur 18 Sur 0 -- -- 85
2021-02-25 01:00:00 5.4 6 Oeste 12 Sudoeste 0 -- -- 86
2021-02-25 00:00:00 6 5 Sudoeste 13 Sur 0 -- -- 86
2021-02-24 23:00:00 6.5 0 Calma 11 Sudeste 0 -- -- 83
2021-02-24 22:00:00 6.5 3 Noroeste 7 Oeste 0 -- -- 82
2021-02-24 21:00:00 7.7 4 Sudoeste 14 Sudoeste 0 -- -- 77
2021-02-24 20:00:00 8.3 5 Sur 10 Sudoeste 0 -- -- 71
2021-02-24 19:00:00 10.2 7 Sudoeste 21 Sur 0 -- -- 61
2021-02-24 18:00:00 13.4 13 Sur 30 Sur 0 -- -- 48
2021-02-24 17:00:00 14.5 16 Sur 39 Sur 0 -- -- 44
2021-02-24 16:00:00 14.5 22 Sur 41 Sur 0 -- -- 46
2021-02-24 15:00:00 14.3 22 Sur 41 Sur 0 -- -- 50
2021-02-24 14:00:00 12.8 17 Sur 30 Sur 0 -- -- 56
2021-02-24 13:00:00 11.5 15 Sur 31 Sur 0 -- -- 60
2021-02-24 12:00:00 10.8 19 Sur 39 Sur 0 -- -- 60
2021-02-24 11:00:00 9.7 13 Sur 28 Sur 0 -- -- 67
2021-02-24 10:00:00 6.8 10 Sudoeste 20 Sudoeste 0 -- -- 78
2021-02-24 09:00:00 4.2 6 Sur 14 Sudeste 0 -- -- 84
2021-02-24 08:00:00 2.6 7 Sur 13 Sudeste 0 -- -- 87
2021-02-24 07:00:00 2.8 4 Sudoeste 15 Sur 0 -- -- 85
2021-02-24 06:00:00 3 8 Sur 16 Sudoeste 0 -- -- 86
2021-02-24 05:00:00 3.2 6 Sudoeste 14 Sur 0 -- -- 87
2021-02-24 04:00:00 3.5 8 Sur 15 Sudeste 0 -- -- 87
2021-02-24 03:00:00 4.3 8 Sur 23 Sudeste 0 -- -- 85
2021-02-24 02:00:00 4.7 12 Sudeste 22 Sudeste 0 -- -- 85
2021-02-24 01:00:00 2.8 0 Calma 5 Oeste 0 -- -- 88
2021-02-24 00:00:00 2.9 0 Calma 5 Sudeste 0 -- -- 85
2021-02-23 23:00:00 3.9 0 Calma 9 Oeste 0 -- -- 82
2021-02-23 22:00:00 4.8 3 Sudoeste 14 Sur 0 -- -- 80
2021-02-23 21:00:00 5.2 0 Calma 8 Sudoeste 0 -- -- 78
2021-02-23 20:00:00 6 7 Sur 14 Sur 0 -- -- 77
2021-02-23 19:00:00 7.5 6 Sur 24 Sudeste 0 -- -- 71
2021-02-23 18:00:00 10.4 13 Sur 25 Sudeste 0 -- -- 60
2021-02-23 17:00:00 11 15 Sur 29 Sur 0 -- -- 57
2021-02-23 16:00:00 11.3 17 Sur 30 Sur 0 -- -- 56
2021-02-23 15:00:00 12.2 14 Sur 27 Sur 0 -- -- 56
2021-02-23 14:00:00 9.9 18 Sudeste 29 Sudeste 0 -- -- 67
2021-02-23 13:00:00 8.8 12 Sudeste 25 Sudoeste 0 -- -- 68
2021-02-23 12:00:00 6.7 13 Sur 26 Sudoeste 0 -- -- 72
2021-02-23 11:00:00 5.7 5 Sudoeste 23 Sudoeste 0 -- -- 80
2021-02-23 10:00:00 3.1 12 Sudoeste 22 Sudoeste 0 -- -- 86
2021-02-23 09:00:00 2.5 7 Sur 15 Sudoeste 0 -- -- 87
2021-02-23 08:00:00 2.2 4 Sur 14 Sudeste 0 -- -- 87
2021-02-23 07:00:00 1.9 7 Sur 14 Sudeste 0 -- -- 88
2021-02-23 06:00:00 1.2 3 Sudoeste 8 Sudeste 0 -- -- 87
2021-02-23 05:00:00 1.4 2 Sur 9 Sur 0 -- -- 87
2021-02-23 04:00:00 2.2 3 Sur 18 Sur 0 -- -- 84
2021-02-23 03:00:00 3 10 Sur 20 Sur 0 -- -- 83
2021-02-23 02:00:00 3.3 4 Sudoeste 13 Sudoeste 0 -- -- 84
2021-02-23 01:00:00 3.4 0 Calma 10 Oeste 0 -- -- 84
2021-02-23 00:00:00 3.4 5 Oeste 10 Oeste 0 -- -- 85
2021-02-22 23:00:00 3.5 0 Calma 5 Oeste 0 -- -- 84
2021-02-22 22:00:00 3.5 0 Calma 4 Nordeste 0 -- -- 84
2021-02-22 21:00:00 3.7 2 Norte 13 Oeste 0 -- -- 82
2021-02-22 20:00:00 3.7 3 Sudoeste 13 Noroeste 0 -- -- 81
2021-02-22 19:00:00 3.5 3 Oeste 12 Oeste 0 -- -- 82
2021-02-22 18:00:00 3.7 3 Noroeste 7 Noroeste 0 -- -- 81
2021-02-22 17:00:00 3.8 3 Nordeste 13 Nordeste 0.2 -- -- 80
2021-02-22 16:00:00 4.6 4 Norte 17 Noroeste 0 -- -- 76
2021-02-22 15:00:00 4.1 2 Nordeste 18 Noroeste 0 -- -- 77
2021-02-22 14:00:00 4.1 3 Nordeste 19 Nordeste 0 -- -- 77
2021-02-22 13:00:00 3.5 8 Noroeste 22 Noroeste 0 -- -- 81
2021-02-22 12:00:00 3.3 8 Noroeste 26 Noroeste 0.2 -- -- 81
2021-02-22 11:00:00 2.1 4 Sudeste 10 Sur 0.8 -- -- 85
2021-02-22 10:00:00 2.4 3 Norte 28 Noroeste 0.2 -- -- 85
2021-02-22 09:00:00 2.4 11 Noroeste 24 Norte 0 -- -- 80
2021-02-22 08:00:00 2 10 Noroeste 25 Oeste 0.2 -- -- 82
2021-02-22 07:00:00 1.9 9 Noroeste 28 Norte 0.4 -- -- 87
2021-02-22 06:00:00 1.8 3 Sudeste 34 Oeste 1.6 -- -- 91
2021-02-22 05:00:00 3.4 22 Oeste 36 Oeste 2.6 -- -- 87
2021-02-22 04:00:00 6.3 8 Nordeste 22 Este 0 -- -- 88
2021-02-22 03:00:00 6.4 13 Nordeste 24 Este 0.2 -- -- 87
2021-02-22 02:00:00 6.6 11 Este 25 Este 0.2 -- -- 87
2021-02-22 01:00:00 6.5 11 Este 33 Este 0.4 -- -- 87
2021-02-22 00:00:00 6.8 15 Este 30 Este 0.2 -- -- 86
2021-02-21 23:00:00 7 18 Este 36 Este 0 -- -- 84
2021-02-21 22:00:00 7.1 17 Este 38 Este 0 -- -- 83
2021-02-21 21:00:00 7.2 19 Este 34 Sudeste 0 -- -- 82
2021-02-21 20:00:00 7 18 Este 38 Este 0 -- -- 83
2021-02-21 19:00:00 7.1 17 Sudeste 46 Este 0 -- -- 84
2021-02-21 18:00:00 7.3 22 Este 41 Este 0 -- -- 82
2021-02-21 17:00:00 7.3 23 Este 37 Este 0 -- -- 82
2021-02-21 16:00:00 7.3 15 Este 33 Este 0 -- -- 80
2021-02-21 15:00:00 9 12 Este 24 Sudeste 0 -- -- 69
2021-02-21 14:00:00 7.5 8 Nordeste 25 Nordeste 0 -- -- 76
2021-02-21 13:00:00 6.7 9 Nordeste 20 Nordeste 0 -- -- 77
2021-02-21 12:00:00 6 11 Nordeste 20 Nordeste 0 -- -- 79
2021-02-21 11:00:00 5.1 5 Nordeste 22 Nordeste 0 -- -- 81
2021-02-21 10:00:00 4.2 9 Nordeste 19 Nordeste 0 -- -- 83
2021-02-21 09:00:00 3.4 9 Nordeste 21 Nordeste 0 -- -- 87
2021-02-21 08:00:00 3.1 10 Nordeste 17 Nordeste 0 -- -- 88
2021-02-21 07:00:00 3.3 3 Sur 17 Nordeste 0 -- -- 84
2021-02-21 06:00:00 4.2 4 Nordeste 11 Norte 0 -- -- 79
2021-02-21 05:00:00 3.9 4 Noroeste 12 Norte 0 -- -- 83
2021-02-21 04:00:00 4.2 3 Norte 14 Nordeste 0 -- -- 81
2021-02-21 03:00:00 6.9 3 Este 18 Sudeste 0 -- -- 62
2021-02-21 02:00:00 7.4 0 Calma 28 Sudeste 0 -- -- 63
2021-02-21 01:00:00 8.9 23 Sudeste 37 Sudeste 0 -- -- 53
2021-02-21 00:00:00 9.4 23 Sudeste 39 Sudeste 0 -- -- 50
2021-02-20 23:00:00 10 23 Sudeste 33 Sudeste 0 -- -- 50
2021-02-20 22:00:00 8.8 4 Sur 15 Sudeste 0 -- -- 58
2021-02-20 21:00:00 8.7 2 Noroeste 5 Noroeste 0 -- -- 52
2021-02-20 20:00:00 9.6 0 Calma 7 Sur 0 -- -- 46
2021-02-20 19:00:00 11.3 4 Sur 27 Sur 0 -- -- 38
2021-02-20 18:00:00 13 19 Sur 43 Sur 0 -- -- 32
2021-02-20 17:00:00 13.9 22 Sur 45 Sur 0 -- -- 34
2021-02-20 16:00:00 14.6 24 Sur 46 Sur 0 -- -- 32
2021-02-20 15:00:00 15.6 25 Sur 60 Sur 0 -- -- 34
2021-02-20 14:00:00 15.1 28 Sur 64 Sur 0 -- -- 34
2021-02-20 13:00:00 13.7 28 Sur 56 Sur 0 -- -- 40
2021-02-20 12:00:00 13 25 Sur 50 Sur 0 -- -- 39
2021-02-20 11:00:00 11.4 26 Sur 44 Sur 0 -- -- 43
2021-02-20 10:00:00 9.6 19 Sur 36 Sur 0 -- -- 50
2021-02-20 09:00:00 8.3 13 Sur 31 Sur 0 -- -- 55
2021-02-20 08:00:00 8 17 Sur 40 Sur 0 -- -- 52
2021-02-20 07:00:00 6.7 8 Sur 26 Sudoeste 0 -- -- 56
2021-02-20 06:00:00 6 16 Sudoeste 26 Sudoeste 0 -- -- 56
2021-02-20 05:00:00 5.6 5 Sudeste 20 Sudeste 0 -- -- 56
2021-02-20 04:00:00 6.4 11 Sudeste 20 Sudeste 0 -- -- 56
2021-02-20 03:00:00 6.9 7 Sur 19 Sudoeste 0 -- -- 55
2021-02-20 02:00:00 7.7 15 Sudoeste 29 Sudoeste 0 -- -- 52
2021-02-20 01:00:00 7.9 12 Sudoeste 20 Sudoeste 0 -- -- 55
2021-02-20 00:00:00 8.4 7 Oeste 24 Sudoeste 0 -- -- 54
2021-02-19 23:00:00 8.7 6 Sudoeste 25 Sur 0 -- -- 51
2021-02-19 22:00:00 8.2 7 Sudoeste 21 Sudoeste 0 -- -- 51
2021-02-19 21:00:00 7.9 10 Sudoeste 24 Sudoeste 0 -- -- 53
2021-02-19 20:00:00 7.8 6 Oeste 13 Oeste 0 -- -- 53
2021-02-19 19:00:00 9.8 7 Sur 26 Sudoeste 0 -- -- 46
2021-02-19 18:00:00 13 15 Sur 40 Sudoeste 0 -- -- 37
2021-02-19 17:00:00 14.3 19 Sur 44 Sur 0 -- -- 37
2021-02-19 16:00:00 14.5 22 Sur 43 Sudoeste 0 -- -- 38
2021-02-19 15:00:00 14.3 23 Sudoeste 46 Sur 0 -- -- 40
2021-02-19 14:00:00 13.3 21 Sudoeste 42 Sur 0 -- -- 43
2021-02-19 13:00:00 12.4 20 Sur 37 Sur 0 -- -- 45
2021-02-19 12:00:00 10.7 13 Sur 33 Sudoeste 0 -- -- 57
2021-02-19 11:00:00 8.2 13 Sur 25 Sur 0 -- -- 61
2021-02-19 10:00:00 5.9 8 Sudoeste 14 Sudoeste 0 -- -- 61
2021-02-19 09:00:00 3.9 9 Sur 20 Sur 0 -- -- 66
2021-02-19 08:00:00 3.7 10 Sur 19 Sur 0 -- -- 65
2021-02-19 07:00:00 3.5 7 Sur 13 Sur 0 -- -- 67
2021-02-19 06:00:00 3 6 Sudoeste 11 Sudoeste 0 -- -- 69
2021-02-19 05:00:00 3.1 8 Sur 14 Sur 0 -- -- 70
2021-02-19 04:00:00 2.5 9 Sur 14 Sur 0 -- -- 75
2021-02-19 03:00:00 2.4 6 Sudoeste 12 Sur 0 -- -- 75
2021-02-19 02:00:00 2.5 7 Sur 13 Sur 0 -- -- 74
2021-02-19 01:00:00 2.9 6 Sur 15 Sur 0 -- -- 71
2021-02-19 00:00:00 3.8 6 Sudoeste 14 Sur 0 -- -- 69
2021-02-18 23:00:00 5.5 9 Sudoeste 13 Sudoeste 0 -- -- 62
2021-02-18 22:00:00 5.1 3 Sudoeste 14 Sur 0 -- -- 64
2021-02-18 21:00:00 6.8 10 Sur 17 Sudoeste 0 -- -- 58
2021-02-18 20:00:00 8.1 7 Sudoeste 28 Sudoeste 0 -- -- 53
2021-02-18 19:00:00 9.7 15 Sudoeste 31 Sudoeste 0 -- -- 44
2021-02-18 18:00:00 11.3 14 Sudoeste 37 Sudoeste 0 -- -- 38
2021-02-18 17:00:00 13.2 21 Sudoeste 42 Sudoeste 0 -- -- 37
2021-02-18 16:00:00 14.1 26 Sudoeste 50 Sudoeste 0 -- -- 37
2021-02-18 15:00:00 14.7 22 Sudoeste 54 Sudoeste 0 -- -- 36
2021-02-18 14:00:00 13.4 38 Sudoeste 60 Sudoeste 0 -- -- 35
2021-02-18 13:00:00 12.5 24 Sudoeste 43 Sudoeste 0 -- -- 42
2021-02-18 12:00:00 10.4 23 Sudoeste 40 Sur 0 -- -- 58
2021-02-18 11:00:00 8.8 21 Sudoeste 41 Sudoeste 0 -- -- 64
2021-02-18 10:00:00 6.3 3 Sur 22 Sur 0 -- -- 70
2021-02-18 09:00:00 3.1 3 Noroeste 5 Noroeste 0 -- -- 78
2021-02-18 08:00:00 2.8 2 Norte 11 Sur 0 -- -- 77
2021-02-18 07:00:00 2.9 3 Noroeste 8 Sudoeste 0 -- -- 80
2021-02-18 06:00:00 3.5 0 Calma 9 Sur 0 -- -- 78
2021-02-18 05:00:00 4.6 7 Sur 13 Sur 0 -- -- 75
2021-02-18 04:00:00 4.3 5 Sur 15 Sur 0 -- -- 75
2021-02-18 03:00:00 5.1 10 Sur 16 Sur 0 -- -- 73
2021-02-18 02:00:00 3.4 0 Calma 5 Sur 0 -- -- 81
2021-02-18 01:00:00 4.5 0 Calma 5 Nordeste 0 -- -- 79
2021-02-18 00:00:00 4.9 0 Calma 4 Este 0 -- -- 80
2021-02-17 23:00:00 5.8 0 Calma 8 Sudoeste 0 -- -- 79
2021-02-17 22:00:00 6.7 2 Sur 8 Sudoeste 0 -- -- 78
2021-02-17 21:00:00 6.9 4 Oeste 9 Sudoeste 0 -- -- 78
2021-02-17 20:00:00 7.6 0 Calma 8 Sudoeste 0 -- -- 76
2021-02-17 19:00:00 9.6 3 Sudoeste 14 Sudeste 0 -- -- 71
2021-02-17 18:00:00 12.3 8 Sur 20 Sur 0 -- -- 58
2021-02-17 17:00:00 13.4 12 Sur 28 Sur 0 -- -- 56
2021-02-17 16:00:00 11.2 11 Sur 23 Sudoeste 0 -- -- 64
2021-02-17 15:00:00 11.3 12 Sudoeste 28 Sudoeste 0 -- -- 65
2021-02-17 14:00:00 11 15 Sudoeste 28 Sur 0 -- -- 67
2021-02-17 13:00:00 10.6 16 Sudoeste 33 Sudoeste 0 -- -- 67
2021-02-17 12:00:00 10.2 12 Sudoeste 27 Sudoeste 0 -- -- 70
2021-02-17 11:00:00 9.3 6 Sudeste 13 Sur 0 -- -- 73
2021-02-17 10:00:00 8 6 Sur 18 Oeste 0 -- -- 76
2021-02-17 09:00:00 7 9 Sur 16 Sur 0 -- -- 82
2021-02-17 08:00:00 6.7 8 Sur 21 Sur 0 -- -- 82
2021-02-17 07:00:00 7.6 9 Sudoeste 24 Sur 0 -- -- 73
2021-02-17 06:00:00 7.5 12 Sudoeste 21 Sudoeste 0 -- -- 74
2021-02-17 05:00:00 6.8 6 Sur 12 Sur 0 -- -- 81
2021-02-17 04:00:00 6.4 9 Sur 15 Sudoeste 0 -- -- 82
2021-02-17 03:00:00 5.7 4 Sudoeste 9 Oeste 0 -- -- 80
2021-02-17 02:00:00 6.9 3 Sur 7 Sur 0 -- -- 76
2021-02-17 01:00:00 7.4 3 Norte 11 Oeste 0 -- -- 73
2021-02-17 00:00:00 7.7 4 Oeste 20 Sur 0 -- -- 73
2021-02-16 23:00:00 8.5 11 Sudoeste 21 Sudoeste 0 -- -- 71
2021-02-16 22:00:00 7.7 0 Calma 6 Sudoeste 0 -- -- 72
2021-02-16 21:00:00 9 8 Sudoeste 14 Oeste 0 -- -- 66
2021-02-16 20:00:00 9.8 7 Sudoeste 23 Sudoeste 0 -- -- 61
2021-02-16 19:00:00 10.7 12 Oeste 31 Sudoeste 0 -- -- 53
2021-02-16 18:00:00 12.1 22 Sudoeste 38 Sudoeste 0 -- -- 41
2021-02-16 17:00:00 14.2 25 Sudoeste 44 Sudoeste 0 -- -- 40
2021-02-16 16:00:00 15 20 Sudoeste 37 Sudoeste 0 -- -- 42
2021-02-16 15:00:00 14.2 16 Sudoeste 34 Sudoeste 0 -- -- 49
2021-02-16 14:00:00 12.2 19 Sudoeste 35 Sudoeste 0 -- -- 57
2021-02-16 13:00:00 9.8 16 Sur 30 Sur 0 -- -- 66
2021-02-16 12:00:00 8.9 14 Sur 29 Sudoeste 0 -- -- 69
2021-02-16 11:00:00 7.3 13 Sur 34 Sur 0 -- -- 73
2021-02-16 10:00:00 6.5 9 Sudoeste 25 Sudoeste 0 -- -- 76
2021-02-16 09:00:00 4.7 10 Sudoeste 33 Sudoeste 0 -- -- 81
2021-02-16 08:00:00 4.9 12 Sudoeste 35 Sudoeste 0 -- -- 79
2021-02-16 07:00:00 5.1 17 Sur 30 Sudeste 0 -- -- 76
2021-02-16 06:00:00 3.2 2 Sudoeste 14 Sudeste 0 -- -- 80
2021-02-16 05:00:00 4.3 5 Sur 18 Sur 0 -- -- 80
2021-02-16 04:00:00 5.1 0 Calma 17 Sur 0 -- -- 76
2021-02-16 03:00:00 5.8 4 Sudoeste 38 Sur 0 -- -- 76
2021-02-16 02:00:00 6.8 20 Sur 48 Sur 0 -- -- 74
2021-02-16 01:00:00 7.2 30 Sur 54 Sur 0 -- -- 76
2021-02-16 00:00:00 7.4 21 Sur 42 Sur 0 -- -- 77
2021-02-15 23:00:00 7.3 7 Sur 19 Sudeste 0 -- -- 78
2021-02-15 22:00:00 7 5 Sur 15 Sur 0 -- -- 79
2021-02-15 21:00:00 6.8 7 Sur 19 Sur 0 -- -- 79
2021-02-15 20:00:00 6.9 11 Sudeste 20 Sudeste 0 -- -- 78
2021-02-15 19:00:00 8.3 8 Sudeste 14 Sudeste 0 -- -- 72
2021-02-15 18:00:00 9.9 9 Sur 22 Sur 0 -- -- 68
2021-02-15 17:00:00 11.8 13 Sur 19 Sur 0 -- -- 63
2021-02-15 16:00:00 11.8 17 Sudoeste 34 Sudoeste 0 -- -- 61
2021-02-15 15:00:00 11.1 14 Sur 33 Sudoeste 0 -- -- 62
2021-02-15 14:00:00 9.3 20 Sudoeste 33 Sudoeste 0 -- -- 69
2021-02-15 13:00:00 8.3 18 Sur 32 Sur 0 -- -- 72
2021-02-15 12:00:00 6.7 22 Sur 36 Sur 0 -- -- 77
2021-02-15 11:00:00 5.4 17 Sur 31 Sudoeste 0 -- -- 82
2021-02-15 10:00:00 3.9 14 Sur 27 Sur 0 -- -- 86
2021-02-15 09:00:00 4.1 12 Sur 22 Sur 0 -- -- 85
2021-02-15 08:00:00 2.8 6 Sudoeste 19 Sur 0 -- -- 85
2021-02-15 07:00:00 4.1 5 Sur 23 Sur 0 -- -- 86
2021-02-15 06:00:00 4.2 12 Sur 23 Sur 0 -- -- 86
2021-02-15 05:00:00 4.6 12 Sur 28 Sur 0 -- -- 85
2021-02-15 04:00:00 4.4 9 Sur 19 Sur 0 -- -- 86
2021-02-15 03:00:00 3.8 4 Sur 15 Sur 0 -- -- 89
2021-02-15 02:00:00 3.4 2 Sudeste 14 Sudeste 0 -- -- 87
2021-02-15 01:00:00 4.1 9 Sudeste 19 Sudeste 0 -- -- 87
2021-02-15 00:00:00 3.9 2 Noroeste 6 Noroeste 0 -- -- 87
2021-02-14 23:00:00 4.7 0 Calma 10 Sur 0 -- -- 86
2021-02-14 22:00:00 5.2 7 Sur 12 Sur 0 -- -- 87
2021-02-14 21:00:00 5.9 4 Nordeste 11 Este 0 -- -- 86
2021-02-14 20:00:00 6.2 4 Este 11 Sudeste 0 -- -- 82
2021-02-14 19:00:00 7.3 5 Nordeste 16 Nordeste 0 -- -- 77
2021-02-14 18:00:00 10.4 5 Sudeste 21 Sudeste 0 -- -- 68
2021-02-14 17:00:00 11.8 11 Sur 27 Sur 0 -- -- 59
2021-02-14 16:00:00 13.1 14 Sur 28 Sudoeste 0 -- -- 56
2021-02-14 15:00:00 12.9 17 Sur 31 Sur 0 -- -- 54
2021-02-14 14:00:00 12 15 Sur 28 Sudoeste 0 -- -- 58
2021-02-14 13:00:00 11.3 14 Sudoeste 24 Sudoeste 0 -- -- 60
2021-02-14 12:00:00 10.7 12 Sudeste 18 Sudeste 0 -- -- 61
2021-02-14 11:00:00 6.7 0 Calma 5 Sudeste 0 -- -- 74
2021-02-14 10:00:00 2 3 Sudeste 5 Sudeste 0 -- -- 84
2021-02-14 09:00:00 -1.5 0 Calma 3 Este 0 -- -- 89
2021-02-14 08:00:00 -1.6 0 Calma 3 Oeste 0 -- -- 89
2021-02-14 07:00:00 -1.4 0 Calma 4 Sudeste 0 -- -- 89
2021-02-14 06:00:00 -1 0 Calma 5 Sur 0 -- -- 89
2021-02-14 05:00:00 -0.1 0 Calma 3 Sur 0 -- -- 88
2021-02-14 04:00:00 0.6 0 Calma 6 Sudeste 0 -- -- 86
2021-02-14 03:00:00 1.5 3 Sudeste 7 Sudeste 0 -- -- 86
2021-02-14 02:00:00 1.9 3 Sur 7 Sudeste 0 -- -- 86
2021-02-14 01:00:00 2.3 4 Sudeste 10 Sudeste 0 -- -- 83
2021-02-14 00:00:00 3.4 5 Sur 14 Oeste 0 -- -- 81
2021-02-13 23:00:00 5.1 8 Noroeste 14 Oeste 0 -- -- 79
2021-02-13 22:00:00 6.9 5 Sur 9 Oeste 0 -- -- 75
2021-02-13 21:00:00 6.9 3 Sur 6 Nordeste 0 -- -- 73
2021-02-13 20:00:00 7.2 7 Norte 14 Norte 0 -- -- 70
2021-02-13 19:00:00 7 5 Nordeste 15 Nordeste 0 -- -- 70
2021-02-13 18:00:00 8 4 Nordeste 20 Este 0 -- -- 61
2021-02-13 17:00:00 9.5 12 Nordeste 20 Nordeste 0 -- -- 53
2021-02-13 16:00:00 9.5 12 Nordeste 21 Nordeste 0 -- -- 48
2021-02-13 15:00:00 9.2 11 Norte 21 Norte 0 -- -- 44
2021-02-13 14:00:00 9.3 5 Nordeste 8 Nordeste 0 -- -- 53
2021-02-13 13:00:00 8.7 0 Calma 6 Sudeste 0 -- -- 61
2021-02-13 08:00:00 -- -- -- -- -- -- -- -- --
2021-02-13 07:00:00 0.4 0 Calma 6 Oeste 0 -- -- 84
2021-02-13 06:00:00 1.3 0 Calma 6 Noroeste 0 -- -- 81
2021-02-13 05:00:00 2.2 5 Sudeste 17 Noroeste 0 -- -- 78
2021-02-13 04:00:00 3.6 3 Sudoeste 10 Sur 0 -- -- 73
2021-02-13 03:00:00 2.6 0 Calma 9 Este 0 -- -- 80
2021-02-13 02:00:00 2.8 5 Noroeste 16 Noroeste 0 -- -- 80
2021-02-13 01:00:00 3.4 10 Oeste 28 Oeste 0 -- -- 78
2021-02-13 00:00:00 4.5 10 Noroeste 23 Oeste 0 -- -- 75
2021-02-12 23:00:00 5 16 Oeste 31 Sudoeste 0 -- -- 75
2021-02-12 22:00:00 5.6 13 Sur 28 Noroeste 0 -- -- 75
2021-02-12 21:00:00 6.1 15 Noroeste 40 Noroeste 0 -- -- 72
2021-02-12 20:00:00 6.7 24 Noroeste 49 Noroeste 0 -- -- 71
2021-02-12 19:00:00 6.9 26 Noroeste 50 Noroeste 0 -- -- 73
2021-02-12 18:00:00 7.3 26 Noroeste 54 Noroeste 0 -- -- 73
2021-02-12 17:00:00 7.8 31 Noroeste 48 Noroeste 0 -- -- 76
2021-02-12 16:00:00 8.2 25 Noroeste 48 Noroeste 0 -- -- 74
2021-02-12 15:00:00 8 29 Noroeste 46 Noroeste 0 -- -- 81
2021-02-12 14:00:00 6.6 19 Noroeste 36 Oeste 1.6 -- -- 90
2021-02-12 13:00:00 4.8 27 Noroeste 58 Noroeste 1.2 -- -- 89
2021-02-12 12:00:00 9.2 16 Noroeste 31 Noroeste 0 -- -- 63
2021-02-12 11:00:00 8.5 17 Oeste 36 Oeste 0 -- -- 67
2021-02-12 10:00:00 8 13 Oeste 28 Oeste 0 -- -- 71
2021-02-12 09:00:00 7.2 0 Calma 17 Oeste 0 -- -- 82
2021-02-12 08:00:00 7.5 11 Oeste 35 Sudoeste 0 -- -- 80
2021-02-12 07:00:00 7.5 8 Sudoeste 26 Sudoeste 0 -- -- 79
2021-02-12 06:00:00 7.8 15 Sudoeste 35 Sudoeste 0 -- -- 76
2021-02-12 05:00:00 7.3 7 Sur 17 Sur 0 -- -- 85
2021-02-12 04:00:00 7.7 9 Sur 19 Sur 0 -- -- 84
2021-02-12 03:00:00 8 9 Sur 17 Sur 0 -- -- 84
2021-02-12 02:00:00 8 6 Sur 18 Sudeste 0 -- -- 84
2021-02-12 01:00:00 8 7 Sur 25 Sur 0 -- -- 84
2021-02-12 00:00:00 8.2 14 Sur 28 Sudoeste 0 -- -- 84
2021-02-11 23:00:00 8.3 15 Sur 30 Sudoeste 0 -- -- 84
2021-02-11 22:00:00 8.5 12 Sur 22 Sudoeste 0 -- -- 86
2021-02-11 21:00:00 8.7 5 Sur 19 Sur 0 -- -- 86
2021-02-11 20:00:00 9.1 8 Sur 15 Sur 0 -- -- 84
2021-02-11 19:00:00 9.9 8 Sudoeste 26 Sudoeste 0 -- -- 78
2021-02-11 18:00:00 10.8 12 Sudoeste 35 Sudoeste 0 -- -- 68
2021-02-11 17:00:00 11.6 19 Sudoeste 38 Sudoeste 0 -- -- 67
2021-02-11 16:00:00 12.9 14 Sudoeste 36 Sudoeste 0 -- -- 63
2021-02-11 15:00:00 14.3 22 Sudoeste 37 Sudoeste 0 -- -- 58
2021-02-11 14:00:00 13.4 23 Sudoeste 36 Sudoeste 0 -- -- 59
2021-02-11 13:00:00 13.1 20 Sudoeste 30 Sudoeste 0 -- -- 62
2021-02-11 12:00:00 12.4 14 Sudoeste 28 Sudoeste 0 -- -- 63
2021-02-11 11:00:00 8.8 14 Sur 30 Sudoeste 0 -- -- 77
2021-02-11 10:00:00 7.8 13 Sur 27 Sudoeste 0 -- -- 76
2021-02-11 09:00:00 6.1 8 Sur 17 Sudoeste 0 -- -- 80
2021-02-11 08:00:00 3.5 5 Sur 12 Sur 0 -- -- 84
2021-02-11 07:00:00 3.1 3 Este 17 Sudoeste 0 -- -- 78
2021-02-11 06:00:00 3.8 8 Sudoeste 13 Sudoeste 0 -- -- 75
2021-02-11 05:00:00 3.3 3 Sur 12 Sur 0 -- -- 70
2021-02-11 04:00:00 2.5 4 Sur 7 Sur 0 -- -- 70
2021-02-11 03:00:00 1.3 3 Oeste 12 Sudoeste 0 -- -- 70
2021-02-11 02:00:00 -0.2 0 Calma 5 Sur 0 -- -- 84
2021-02-11 01:00:00 -0.5 2 Sudeste 6 Este 0 -- -- 83
2021-02-11 00:00:00 -0.2 0 Calma 8 Oeste 0 -- -- 83
2021-02-10 23:00:00 0.5 3 Noroeste 6 Sudeste 0 -- -- 81
2021-02-10 22:00:00 0.9 0 Calma 12 Oeste 0 -- -- 79
2021-02-10 21:00:00 1.7 10 Oeste 16 Oeste 0 -- -- 77
2021-02-10 20:00:00 2.8 7 Noroeste 14 Oeste 0 -- -- 73
2021-02-10 19:00:00 3.9 6 Oeste 21 Sudoeste 0 -- -- 72
2021-02-10 18:00:00 7.4 9 Sur 22 Sur 0 -- -- 61
2021-02-10 17:00:00 8.2 12 Oeste 28 Oeste 0 -- -- 56
2021-02-10 16:00:00 8.5 12 Oeste 29 Oeste 0 -- -- 55
2021-02-10 15:00:00 7.5 12 Oeste 30 Oeste 0 -- -- 57
2021-02-10 14:00:00 7.6 19 Oeste 36 Oeste 0 -- -- 60
2021-02-10 13:00:00 6.8 18 Oeste 36 Oeste 0 -- -- 57
2021-02-10 12:00:00 5.9 21 Oeste 35 Oeste 0 -- -- 63
2021-02-10 11:00:00 4.6 16 Oeste 30 Oeste 0 -- -- 71
2021-02-10 10:00:00 3.6 13 Oeste 25 Oeste 0 -- -- 71
2021-02-10 09:00:00 2.8 10 Oeste 27 Oeste 0 -- -- 73
2021-02-10 08:00:00 2 13 Oeste 26 Oeste 0 -- -- 74
2021-02-10 07:00:00 1.5 16 Oeste 32 Sudoeste 0 -- -- 79
2021-02-10 06:00:00 1.3 17 Sudoeste 30 Sudoeste 0.4 -- -- 83
2021-02-10 05:00:00 1.4 9 Sur 28 Sudoeste 0.4 -- -- 85
2021-02-10 04:00:00 2.2 7 Sudoeste 30 Sudoeste 0 -- -- 83
2021-02-10 03:00:00 1.9 17 Sudoeste 39 Sudoeste 0 -- -- 83
2021-02-10 02:00:00 2.3 11 Sudoeste 33 Oeste 0 -- -- 81
2021-02-10 01:00:00 2 10 Oeste 28 Sudoeste 0 -- -- 82
2021-02-10 00:00:00 2.2 8 Oeste 62 Sudoeste 0.2 -- -- 82
2021-02-09 23:00:00 1.2 22 Sudoeste 42 Sudoeste 0.2 -- -- 87
2021-02-09 22:00:00 1.6 15 Sur 36 Sur 0.4 -- -- 85
2021-02-09 21:00:00 2.7 18 Sudoeste 40 Sudoeste 0 -- -- 80
2021-02-09 20:00:00 2.7 19 Oeste 37 Oeste 0 -- -- 78
2021-02-09 19:00:00 2.5 15 Oeste 40 Sudoeste 0 -- -- 78
2021-02-09 18:00:00 3.1 13 Oeste 32 Sudoeste 0 -- -- 79
2021-02-09 17:00:00 3.6 19 Sudoeste 32 Sudoeste 0 -- -- 80
2021-02-09 16:00:00 4.6 12 Sudoeste 38 Sudoeste 1.6 -- -- 83
2021-02-09 15:00:00 5 31 Sudoeste 58 Sudoeste 3 -- -- 84
2021-02-09 14:00:00 5.5 30 Sur 64 Sudoeste 1.2 -- -- 84
2021-02-09 13:00:00 6 36 Sudoeste 70 Sudoeste 0.4 -- -- 82
2021-02-09 12:00:00 6.5 35 Sudoeste 62 Sudoeste 0 -- -- 79
2021-02-09 11:00:00 4.7 28 Sudoeste 55 Sudoeste 0 -- -- 82
2021-02-09 10:00:00 2.9 23 Sudoeste 44 Sudoeste 0.4 -- -- 85
2021-02-09 09:00:00 1.9 13 Sudoeste 32 Sudoeste 0.2 -- -- 85
2021-02-09 08:00:00 2.5 14 Sudoeste 45 Sudoeste 0.4 -- -- 81
2021-02-09 07:00:00 2.5 21 Sudoeste 36 Sur 0 -- -- 80
2021-02-09 06:00:00 2.9 24 Sudoeste 47 Sur 0 -- -- 78
2021-02-09 05:00:00 3.8 23 Sudoeste 51 Sudoeste 0.2 -- -- 79
2021-02-09 04:00:00 4 14 Sudoeste 27 Sudoeste 0 -- -- 77
2021-02-09 03:00:00 4.1 14 Sudoeste 31 Sudoeste 0 -- -- 79
2021-02-09 02:00:00 3.7 14 Sudoeste 30 Sudoeste 0 -- -- 79
2021-02-09 01:00:00 1.9 4 Sur 12 Sudoeste 0 -- -- 78
2021-02-09 00:00:00 2.5 3 Sur 23 Sudoeste 0 -- -- 78
2021-02-08 23:00:00 3 14 Sur 30 Sur 0 -- -- 78
2021-02-08 22:00:00 3.2 2 Sur 9 Sudeste 0 -- -- 72
2021-02-08 21:00:00 3 0 Calma 20 Oeste 0 -- -- 76
2021-02-08 20:00:00 3.8 8 Oeste 26 Sudoeste 0 -- -- 76
2021-02-08 19:00:00 4.3 11 Sudoeste 25 Sudoeste 0 -- -- 74
2021-02-08 18:00:00 5.4 14 Sudoeste 31 Sudoeste 0 -- -- 69
2021-02-08 17:00:00 7.4 17 Sudoeste 36 Sudoeste 0 -- -- 63
2021-02-08 16:00:00 8 21 Sudoeste 35 Sudoeste 0 -- -- 61
2021-02-08 15:00:00 7.5 18 Sudoeste 35 Oeste 0 -- -- 63
2021-02-08 14:00:00 6.9 22 Sudoeste 40 Sudoeste 0 -- -- 67
2021-02-08 13:00:00 8.2 24 Sudoeste 38 Sudoeste 0 -- -- 59
2021-02-08 12:00:00 6.8 21 Sudoeste 35 Sudoeste 0 -- -- 68
2021-02-08 11:00:00 5.4 16 Sudoeste 30 Sudoeste 0 -- -- 72
2021-02-08 10:00:00 4.4 10 Sudoeste 20 Sudoeste 0 -- -- 76
2021-02-08 09:00:00 4 7 Sudoeste 28 Sudoeste 0 -- -- 78
2021-02-08 08:00:00 4.3 13 Sudoeste 34 Sudoeste 0 -- -- 79
2021-02-08 07:00:00 2.9 7 Sudeste 15 Sudeste 0 -- -- 87
2021-02-08 06:00:00 2.9 10 Sudeste 22 Oeste 0 -- -- 85
2021-02-08 05:00:00 2.7 9 Oeste 23 Sudoeste 0 -- -- 81
2021-02-08 04:00:00 3.5 9 Sudoeste 33 Sudoeste 0 -- -- 79
2021-02-08 03:00:00 3.5 9 Sudoeste 34 Sudoeste 0 -- -- 81
2021-02-08 02:00:00 3.9 21 Sudoeste 44 Sudoeste 0 -- -- 77
2021-02-08 01:00:00 3 13 Sudoeste 30 Sudoeste 0 -- -- 78
2021-02-08 00:00:00 2.4 14 Sur 31 Sur 0 -- -- 78
2021-02-07 23:00:00 2.6 18 Sur 41 Sur 0 -- -- 74
2021-02-07 22:00:00 3.1 9 Sudoeste 29 Sudoeste 0 -- -- 73
2021-02-07 21:00:00 3.8 4 Sudoeste 30 Sudoeste 0 -- -- 73
2021-02-07 20:00:00 4.1 10 Oeste 24 Oeste 0 -- -- 71
2021-02-07 19:00:00 3.6 13 Sudoeste 26 Sur 0 -- -- 72
2021-02-07 18:00:00 4.2 8 Sudoeste 24 Sudoeste 0 -- -- 68
2021-02-07 17:00:00 4.8 17 Sudoeste 31 Sudoeste 0 -- -- 62
2021-02-07 16:00:00 5.8 14 Sur 28 Sudoeste 0 -- -- 57
2021-02-07 15:00:00 6.5 7 Sudoeste 19 Oeste 0 -- -- 48
2021-02-07 14:00:00 6.8 8 Sudoeste 16 Sudeste 0 -- -- 51
2021-02-07 13:00:00 5.4 5 Oeste 22 Sudoeste 0 -- -- 53
2021-02-07 12:00:00 4.5 13 Sudoeste 23 Oeste 0 -- -- 59
2021-02-07 11:00:00 3 8 Oeste 17 Sudoeste 0 -- -- 64
2021-02-07 10:00:00 1.5 10 Oeste 28 Oeste 0 -- -- 68
2021-02-07 09:00:00 -0.3 17 Noroeste 26 Noroeste 0 -- -- 73
2021-02-07 08:00:00 -1.5 3 Sur 14 Oeste 0 -- -- 76
2021-02-07 07:00:00 -1.3 3 Sur 12 Sudoeste 0 -- -- 77
2021-02-07 06:00:00 -1.3 4 Sur 16 Oeste 0 -- -- 78
2021-02-07 05:00:00 -0.4 5 Noroeste 25 Oeste 0 -- -- 73
2021-02-07 04:00:00 0.4 8 Oeste 25 Oeste 0 -- -- 73
2021-02-07 03:00:00 1 10 Noroeste 31 Noroeste 0 -- -- 73
2021-02-07 02:00:00 1.3 13 Noroeste 39 Noroeste 0 -- -- 71
2021-02-07 01:00:00 1.6 12 Noroeste 25 Oeste 0 -- -- 74
2021-02-07 00:00:00 2.1 6 Noroeste 25 Norte 0 -- -- 73
2021-02-06 23:00:00 2.2 5 Noroeste 15 Noroeste 0.2 -- -- 78
2021-02-06 22:00:00 2.6 7 Noroeste 19 Oeste 0 -- -- 80
2021-02-06 21:00:00 2.8 8 Noroeste 19 Noroeste 0 -- -- 78
2021-02-06 20:00:00 3.2 8 Noroeste 24 Norte 0 -- -- 77
2021-02-06 19:00:00 3.3 9 Noroeste 21 Noroeste 0 -- -- 80
2021-02-06 18:00:00 4.2 3 Sudeste 17 Norte 0 -- -- 75
2021-02-06 17:00:00 4.4 3 Este 21 Noroeste 0 -- -- 74
2021-02-06 16:00:00 4.8 9 Oeste 32 Noroeste 0.2 -- -- 75
2021-02-06 15:00:00 5.1 12 Oeste 30 Oeste 0 -- -- 78
2021-02-06 14:00:00 5.6 13 Oeste 26 Noroeste 0.4 -- -- 79
2021-02-06 13:00:00 6.4 13 Noroeste 22 Sudoeste 0 -- -- 79
2021-02-06 12:00:00 6.8 15 Sudoeste 26 Sudoeste 0 -- -- 79
2021-02-06 11:00:00 6.5 3 Oeste 17 Sudoeste 0 -- -- 79
2021-02-06 10:00:00 5.9 8 Oeste 16 Oeste 0 -- -- 81
2021-02-06 09:00:00 5.8 6 Sudoeste 22 Sudoeste 0 -- -- 84
2021-02-06 08:00:00 5.5 8 Sudoeste 13 Sudoeste 0 -- -- 86
2021-02-06 07:00:00 5.3 3 Sudeste 12 Sudeste 0.2 -- -- 88
2021-02-06 06:00:00 5.4 7 Sudeste 12 Sudeste 0 -- -- 87
2021-02-06 05:00:00 5.4 0 Calma 12 Sudeste 0 -- -- 85
2021-02-06 04:00:00 5.3 5 Sur 9 Sur 0 -- -- 85
2021-02-06 03:00:00 5.6 4 Sur 23 Sudoeste 0.2 -- -- 83
2021-02-06 02:00:00 6.3 15 Sur 42 Sur 0 -- -- 82
2021-02-06 01:00:00 6.8 3 Oeste 10 Noroeste 0 -- -- 86
2021-02-06 00:00:00 7 4 Sur 8 Sudeste 0 -- -- 86
2021-02-05 23:00:00 7.2 4 Sudeste 14 Sudeste 0 -- -- 85
2021-02-05 22:00:00 7.3 8 Nordeste 15 Nordeste 0 -- -- 85
2021-02-05 21:00:00 7 4 Nordeste 7 Noroeste 0 -- -- 83
2021-02-05 20:00:00 6.7 2 Sudoeste 7 Norte 0 -- -- 84
2021-02-05 19:00:00 6.5 4 Norte 12 Nordeste 0 -- -- 83
2021-02-05 18:00:00 6.4 8 Nordeste 19 Nordeste 0 -- -- 85
2021-02-05 17:00:00 7.3 13 Nordeste 22 Nordeste 0 -- -- 83
2021-02-05 16:00:00 8.5 14 Norte 26 Nordeste 0 -- -- 79
2021-02-05 15:00:00 10.1 12 Nordeste 21 Nordeste 0 -- -- 71
2021-02-05 14:00:00 10.3 8 Nordeste 19 Norte 0 -- -- 69
2021-02-05 13:00:00 9.6 10 Nordeste 27 Este 0 -- -- 73
2021-02-05 12:00:00 10.4 12 Nordeste 25 Nordeste 0 -- -- 65
2021-02-05 11:00:00 7.6 0 Calma 2 Sur 0 -- -- 78
2021-02-05 10:00:00 4.8 0 Calma 5 Sudoeste 0 -- -- 85
2021-02-05 09:00:00 3 0 Calma 7 Sudeste 0 -- -- 88
2021-02-05 08:00:00 3.4 2 Sur 5 Sur 0 -- -- 85
2021-02-05 07:00:00 4.6 0 Calma 4 Sur 0 -- -- 85
2021-02-05 06:00:00 5.7 2 Oeste 6 Sudoeste 0 -- -- 82
2021-02-05 05:00:00 6.3 3 Oeste 14 Sudeste 0 -- -- 81
2021-02-05 04:00:00 6.5 5 Sur 9 Sudeste 0 -- -- 79
2021-02-05 03:00:00 7.6 3 Nordeste 19 Sur 0.2 -- -- 75
2021-02-05 02:00:00 7.6 11 Sur 26 Sur 0 -- -- 77
2021-02-05 01:00:00 7.3 15 Sur 31 Sudoeste 0 -- -- 76
2021-02-05 00:00:00 7.3 15 Sur 35 Sudoeste 0 -- -- 76
2021-02-04 23:00:00 7.2 17 Sur 34 Sur 0 -- -- 75
2021-02-04 22:00:00 7.2 9 Sur 28 Sur 0 -- -- 74
2021-02-04 21:00:00 7.6 14 Sur 28 Sur 0 -- -- 74
2021-02-04 20:00:00 7.9 4 Sur 15 Sudeste 0 -- -- 77
2021-02-04 19:00:00 8.3 4 Nordeste 10 Norte 0 -- -- 77
2021-02-04 18:00:00 9.4 5 Nordeste 22 Sudeste 0 -- -- 74
2021-02-04 17:00:00 10.9 16 Sudeste 23 Sudeste 0 -- -- 70
2021-02-04 16:00:00 12.4 8 Este 21 Nordeste 0 -- -- 68
2021-02-04 15:00:00 11.6 11 Nordeste 27 Nordeste 0 -- -- 71
2021-02-04 14:00:00 11.7 11 Sudeste 21 Sudeste 0 -- -- 68
2021-02-04 13:00:00 9.9 10 Sudeste 21 Sur 0 -- -- 78
2021-02-04 12:00:00 8.2 9 Sudeste 15 Sudeste 0 -- -- 84
2021-02-04 11:00:00 7.6 3 Este 9 Sudeste 0 -- -- 83
2021-02-04 10:00:00 7.1 6 Sur 11 Sur 0 -- -- 82
2021-02-04 09:00:00 6.6 3 Sudeste 12 Sur 0 -- -- 85
2021-02-04 08:00:00 6.6 5 Sur 13 Sur 0 -- -- 85
2021-02-04 07:00:00 6.7 5 Sur 9 Sudeste 0 -- -- 86
2021-02-04 06:00:00 7.1 4 Sur 8 Sur 0 -- -- 85
2021-02-04 05:00:00 7.4 0 Calma 17 Sudoeste 0 -- -- 86
2021-02-04 04:00:00 7.6 4 Sur 18 Sudoeste 0 -- -- 86
2021-02-04 03:00:00 7.7 7 Sudoeste 24 Sudoeste 0 -- -- 87
2021-02-04 02:00:00 7.8 6 Sudoeste 17 Sudoeste 0.2 -- -- 86
2021-02-04 01:00:00 7.8 9 Sudoeste 27 Sudoeste 0 -- -- 87
2021-02-04 00:00:00 7.6 13 Sudoeste 30 Sur 0 -- -- 86
2021-02-03 23:00:00 7.5 9 Sudoeste 24 Sur 0 -- -- 85
2021-02-03 22:00:00 7.4 3 Oeste 15 Sudoeste 0 -- -- 83
2021-02-03 21:00:00 7.4 5 Sur 16 Sudoeste 0 -- -- 84
2021-02-03 20:00:00 7.6 10 Sur 23 Sudoeste 0 -- -- 85
2021-02-03 19:00:00 8 4 Sur 13 Sudoeste 0.4 -- -- 85
2021-02-03 18:00:00 8.6 6 Sur 20 Sur 0 -- -- 82
2021-02-03 17:00:00 9.1 9 Sur 28 Sudoeste 0.2 -- -- 80
2021-02-03 16:00:00 10.5 19 Sudoeste 38 Sudoeste 0 -- -- 68
2021-02-03 15:00:00 10.8 20 Sudoeste 49 Sudoeste 0 -- -- 69
2021-02-03 14:00:00 9.6 21 Sudoeste 42 Sudoeste 0 -- -- 77
2021-02-03 13:00:00 9.2 19 Sudoeste 38 Sudoeste 0 -- -- 78
2021-02-03 12:00:00 8.6 17 Sudoeste 44 Sudoeste 0 -- -- 79
2021-02-03 11:00:00 7.8 23 Sudoeste 40 Sudoeste 0 -- -- 80
2021-02-03 10:00:00 6.5 13 Sudoeste 38 Sudoeste 0 -- -- 84
2021-02-03 09:00:00 5.8 22 Sudoeste 38 Sudoeste 0 -- -- 84
2021-02-03 08:00:00 5.5 17 Sudoeste 38 Sudoeste 0 -- -- 83
2021-02-03 07:00:00 5.4 22 Sudoeste 43 Sudoeste 0 -- -- 81
2021-02-03 06:00:00 5.3 22 Sudoeste 50 Sudoeste 0 -- -- 82
2021-02-03 05:00:00 5.4 22 Sudoeste 52 Sudoeste 0 -- -- 81
2021-02-03 04:00:00 6.2 28 Sudoeste 55 Sudoeste 0 -- -- 81
2021-02-03 03:00:00 6.8 24 Sudoeste 53 Sudoeste 0 -- -- 79
2021-02-03 02:00:00 7.4 28 Sudoeste 48 Oeste 0 -- -- 76
2021-02-03 01:00:00 7.7 19 Sudoeste 42 Sudoeste 0 -- -- 76
2021-02-03 00:00:00 7.9 12 Oeste 28 Sudoeste 0 -- -- 77
2021-02-02 23:00:00 7.7 3 Sudoeste 25 Oeste 0 -- -- 79
2021-02-02 22:00:00 7.7 0 Calma 25 Sur 0 -- -- 80
2021-02-02 21:00:00 7.8 11 Sur 23 Sur 0 -- -- 79
2021-02-02 20:00:00 8.1 10 Sur 22 Sudeste 0 -- -- 77
2021-02-02 19:00:00 9.3 12 Sur 27 Sudeste 0 -- -- 71
2021-02-02 18:00:00 10.4 7 Sur 33 Sudoeste 0 -- -- 62
2021-02-02 17:00:00 11.5 22 Sudoeste 39 Oeste 0 -- -- 58
2021-02-02 16:00:00 12 20 Sudoeste 48 Sudoeste 0 -- -- 58
2021-02-02 15:00:00 11.8 24 Sudoeste 54 Sudoeste 0 -- -- 60
2021-02-02 14:00:00 11.5 26 Sudoeste 49 Sudoeste 0 -- -- 65
2021-02-02 13:00:00 10.7 31 Sudoeste 50 Sudoeste 0 -- -- 64
2021-02-02 12:00:00 10.3 28 Sudoeste 52 Sur 0 -- -- 68
2021-02-02 11:00:00 11.1 17 Sudoeste 37 Sudoeste 0 -- -- 65
2021-02-02 10:00:00 8.2 13 Sudoeste 27 Sudoeste 0 -- -- 77
2021-02-02 09:00:00 7.7 4 Sur 23 Sudoeste 0 -- -- 72
2021-02-02 08:00:00 8.8 15 Sudoeste 30 Sudoeste 0 -- -- 67
2021-02-02 07:00:00 8 15 Sudoeste 35 Oeste 0 -- -- 71
2021-02-02 06:00:00 8.4 25 Sudoeste 40 Sudoeste 0 -- -- 70
2021-02-02 05:00:00 7.7 15 Sudoeste 32 Sudoeste 0 -- -- 74
2021-02-02 04:00:00 7.5 9 Sudoeste 27 Sur 0 -- -- 78
2021-02-02 03:00:00 8 14 Sudoeste 26 Sudoeste 0 -- -- 75
2021-02-02 02:00:00 7 9 Sudoeste 22 Sur 0 -- -- 81
2021-02-02 01:00:00 6.7 9 Sur 23 Sur 0 -- -- 80
2021-02-02 00:00:00 6.4 6 Sur 23 Sur 0 -- -- 78
2021-02-01 23:00:00 6.9 11 Sur 18 Sur 0 -- -- 78
2021-02-01 22:00:00 7.1 3 Nordeste 22 Sur 0 -- -- 77
2021-02-01 21:00:00 7.7 10 Sur 28 Oeste 0 -- -- 73
2021-02-01 20:00:00 9.2 13 Oeste 26 Oeste 0 -- -- 66
2021-02-01 19:00:00 9.2 17 Oeste 35 Oeste 0 -- -- 65
2021-02-01 18:00:00 9.9 21 Oeste 31 Oeste 0 -- -- 66
2021-02-01 17:00:00 11.1 15 Oeste 32 Oeste 0 -- -- 63
2021-02-01 16:00:00 11.2 17 Oeste 30 Oeste 0 -- -- 65
2021-02-01 15:00:00 10.8 20 Oeste 34 Oeste 0 -- -- 63
2021-02-01 14:00:00 10.9 18 Oeste 31 Oeste 0 -- -- 62
2021-02-01 13:00:00 11.6 13 Oeste 36 Oeste 0 -- -- 53
2021-02-01 12:00:00 11.6 23 Oeste 39 Oeste 0 -- -- 49
2021-02-01 11:00:00 10.4 19 Oeste 39 Oeste 0 -- -- 52
2021-02-01 10:00:00 8.9 19 Oeste 31 Oeste 0 -- -- 53
2021-02-01 09:00:00 6.9 16 Oeste 30 Oeste 0 -- -- 56
2021-02-01 08:00:00 6.6 18 Oeste 31 Oeste 0 -- -- 59
2021-02-01 07:00:00 6.3 14 Oeste 33 Oeste 0 -- -- 61
2021-02-01 06:00:00 6.4 18 Oeste 36 Oeste 0 -- -- 63
2021-02-01 05:00:00 6.8 23 Oeste 51 Oeste 0 -- -- 62
2021-02-01 04:00:00 7.2 35 Oeste 63 Oeste 0 -- -- 60
2021-02-01 03:00:00 7.8 39 Oeste 71 Oeste 0 -- -- 59
2021-02-01 02:00:00 8.5 43 Oeste 71 Oeste 0 -- -- 56
2021-02-01 01:00:00 8.8 33 Oeste 65 Oeste 0 -- -- 56
2021-02-01 00:00:00 9.3 32 Oeste 68 Oeste 0 -- -- 55
2021-01-31 23:00:00 9.8 31 Oeste 58 Oeste 0 -- -- 53
2021-01-31 22:00:00 10 24 Oeste 56 Oeste 0 -- -- 54
2021-01-31 21:00:00 10.4 26 Oeste 51 Oeste 0 -- -- 55
2021-01-31 20:00:00 9.6 12 Oeste 32 Sudoeste 0 -- -- 59
2021-01-31 19:00:00 9.7 21 Sudoeste 45 Oeste 0 -- -- 62
2021-01-31 18:00:00 10 24 Sudoeste 40 Sudoeste 0 -- -- 65
2021-01-31 17:00:00 11 20 Oeste 31 Sudoeste 0 -- -- 64
2021-01-31 16:00:00 12.9 14 Oeste 35 Oeste 0 -- -- 56
2021-01-31 15:00:00 13.7 17 Sudoeste 44 Oeste 0 -- -- 55
2021-01-31 14:00:00 13.2 21 Sudoeste 39 Sudoeste 0 -- -- 55
2021-01-31 13:00:00 11.4 10 Oeste 32 Oeste 0 -- -- 63
2021-01-31 12:00:00 10.1 18 Oeste 32 Oeste 0 -- -- 64
2021-01-31 11:00:00 7.1 17 Oeste 35 Oeste 0 -- -- 72
2021-01-31 10:00:00 5.1 15 Oeste 37 Oeste 0 -- -- 74
2021-01-31 09:00:00 5.8 19 Oeste 38 Oeste 0 -- -- 63
2021-01-31 08:00:00 4.1 13 Oeste 32 Oeste 0 -- -- 68
2021-01-31 07:00:00 4 21 Oeste 36 Oeste 0 -- -- 69
2021-01-31 06:00:00 4.3 22 Oeste 39 Oeste 0 -- -- 70
2021-01-31 05:00:00 4.3 24 Oeste 42 Oeste 0 -- -- 69
2021-01-31 04:00:00 4.5 20 Oeste 39 Oeste 0 -- -- 67
2021-01-31 03:00:00 4.5 15 Noroeste 35 Noroeste 0 -- -- 67
2021-01-31 02:00:00 4.4 13 Noroeste 31 Noroeste 0 -- -- 66
2021-01-31 01:00:00 4.4 15 Noroeste 41 Oeste 0 -- -- 65
2021-01-31 00:00:00 4.5 21 Oeste 36 Oeste 0 -- -- 62
2021-01-30 23:00:00 4.1 14 Oeste 32 Oeste 0 -- -- 64
2021-01-30 22:00:00 4.5 18 Noroeste 40 Oeste 0 -- -- 61
2021-01-30 21:00:00 4.8 19 Oeste 45 Oeste 0 -- -- 61
2021-01-30 20:00:00 5 19 Oeste 50 Oeste 0 -- -- 64
2021-01-30 19:00:00 5.3 23 Oeste 38 Oeste 0 -- -- 63
2021-01-30 18:00:00 4.6 14 Oeste 37 Oeste 0 -- -- 72
2021-01-30 17:00:00 6.1 31 Oeste 50 Oeste 0 -- -- 63
2021-01-30 16:00:00 7.1 20 Oeste 48 Oeste 0 -- -- 59
2021-01-30 15:00:00 8.5 31 Oeste 58 Oeste 0 -- -- 54
2021-01-30 14:00:00 8.8 31 Oeste 55 Oeste 0 -- -- 48
2021-01-30 13:00:00 7.9 28 Oeste 53 Oeste 0 -- -- 54
2021-01-30 12:00:00 8.6 19 Oeste 51 Sudoeste 0 -- -- 62
2021-01-30 11:00:00 7.5 27 Sudoeste 52 Sudoeste 0 -- -- 62
2021-01-30 10:00:00 7.4 24 Sudoeste 41 Sudoeste 0 -- -- 66
2021-01-30 09:00:00 6.3 19 Sudoeste 40 Sudoeste 0 -- -- 70
2021-01-30 08:00:00 6.1 21 Sudoeste 58 Sudoeste 0 -- -- 76
2021-01-30 07:00:00 7 26 Sudoeste 48 Sudoeste 2.4 -- -- 71
2021-01-30 06:00:00 7.8 19 Sudoeste 42 Sudoeste 0.4 -- -- 80
2021-01-30 05:00:00 8.3 24 Sudoeste 51 Sudoeste 0 -- -- 75
2021-01-30 04:00:00 9 33 Sudoeste 56 Sudoeste 0 -- -- 68
2021-01-30 03:00:00 8.6 30 Sudoeste 55 Sudoeste 0 -- -- 75
2021-01-30 02:00:00 8.8 21 Sudoeste 57 Sudoeste 0 -- -- 73
2021-01-30 01:00:00 9.8 29 Oeste 71 Sudoeste 0 -- -- 73
2021-01-30 00:00:00 10.1 16 Oeste 42 Oeste 0 -- -- 71